createdAt,value
2018-08-09T00:00:48.055Z,42.20
2018-08-09T00:03:15.838Z,42.10
2018-08-09T00:05:43.377Z,42.10
2018-08-09T00:08:10.925Z,42.20
2018-08-09T00:10:38.401Z,42.20
2018-08-09T00:13:05.981Z,42.20
2018-08-09T00:15:33.434Z,41.80
2018-08-09T00:18:00.859Z,42.30
2018-08-09T00:20:28.306Z,42.30
2018-08-09T00:22:55.785Z,42.30
2018-08-09T00:25:23.267Z,42.40
2018-08-09T00:27:50.737Z,41.90
2018-08-09T00:30:20.099Z,42.40
2018-08-09T00:32:48.954Z,42.40
2018-08-09T00:35:16.403Z,42.50
2018-08-09T00:37:43.854Z,42.40
2018-08-09T00:40:11.263Z,42.40
2018-08-09T00:42:38.768Z,42.50
2018-08-09T00:45:06.384Z,42.50
2018-08-09T00:47:33.880Z,42.50
2018-08-09T00:50:01.399Z,42.50
2018-08-09T00:52:28.880Z,42.30
2018-08-09T00:54:56.356Z,42.40
2018-08-09T00:57:23.882Z,42.40
2018-08-09T00:59:51.440Z,42.30
2018-08-09T01:02:18.954Z,42.30
2018-08-09T01:04:46.410Z,42.50
2018-08-09T01:07:13.826Z,42.60
2018-08-09T01:09:41.284Z,42.70
2018-08-09T01:12:08.783Z,42.80
2018-08-09T01:14:36.239Z,42.80
2018-08-09T01:17:03.706Z,42.90
2018-08-09T01:19:31.203Z,42.90
2018-08-09T01:21:58.682Z,42.80
2018-08-09T01:24:26.181Z,43.00
2018-08-09T01:26:53.675Z,43.00
2018-08-09T01:29:21.114Z,43.50
2018-08-09T01:31:48.598Z,43.20
2018-08-09T01:34:16.062Z,43.30
2018-08-09T01:36:43.492Z,43.40
2018-08-09T01:39:12.270Z,43.50
2018-08-09T01:41:49.948Z,43.60
2018-08-09T01:44:17.406Z,43.60
2018-08-09T01:46:44.869Z,43.80
2018-08-09T01:49:12.325Z,43.90
2018-08-09T01:51:39.729Z,44.00
2018-08-09T01:54:07.177Z,44.10
2018-08-09T01:56:34.699Z,44.00
2018-08-09T01:59:02.921Z,44.10
2018-08-09T02:01:30.356Z,44.10
2018-08-09T02:03:57.801Z,43.90
2018-08-09T02:06:25.255Z,44.20
2018-08-09T02:08:52.781Z,44.20
2018-08-09T02:11:20.237Z,44.20
2018-08-09T02:13:47.732Z,44.40
2018-08-09T02:16:15.185Z,44.30
2018-08-09T02:18:42.683Z,43.70
2018-08-09T02:21:10.545Z,44.90
2018-08-09T02:23:38.027Z,44.30
2018-08-09T02:26:05.469Z,43.20
2018-08-09T02:28:32.925Z,44.20
2018-08-09T02:31:00.597Z,44.20
2018-08-09T02:33:28.069Z,44.40
2018-08-09T02:35:55.551Z,44.60
2018-08-09T02:38:29.775Z,44.60
2018-08-09T02:40:57.231Z,44.60
2018-08-09T02:43:24.685Z,44.70
2018-08-09T02:45:52.243Z,44.70
2018-08-09T02:48:19.804Z,44.70
2018-08-09T02:50:47.257Z,44.70
2018-08-09T02:53:14.702Z,44.80
2018-08-09T02:55:42.199Z,44.70
2018-08-09T02:58:09.649Z,44.90
2018-08-09T03:00:41.856Z,44.80
2018-08-09T03:03:09.288Z,45.00
2018-08-09T03:05:36.760Z,45.80
2018-08-09T03:08:04.277Z,45.10
2018-08-09T03:10:31.727Z,44.90
2018-08-09T03:12:59.211Z,44.90
2018-08-09T03:15:26.706Z,44.90
2018-08-09T03:17:54.213Z,45.00
2018-08-09T03:20:21.663Z,45.10
2018-08-09T03:22:49.130Z,45.20
2018-08-09T03:25:16.578Z,45.20
2018-08-09T03:27:43.986Z,45.30
2018-08-09T03:30:11.420Z,45.50
2018-08-09T03:32:38.872Z,45.50
2018-08-09T03:35:06.335Z,45.40
2018-08-09T03:37:33.812Z,45.60
2018-08-09T03:40:01.305Z,44.70
2018-08-09T03:42:28.778Z,45.70
2018-08-09T03:44:56.264Z,45.70
2018-08-09T03:47:23.794Z,45.80
2018-08-09T03:49:51.277Z,45.80
2018-08-09T03:52:18.717Z,46.00
2018-08-09T03:54:46.174Z,46.00
2018-08-09T03:57:13.666Z,46.10
2018-08-09T03:59:42.083Z,46.20
2018-08-09T04:02:09.562Z,46.30
2018-08-09T04:04:37.060Z,46.30
2018-08-09T04:07:04.588Z,46.30
2018-08-09T04:09:32.067Z,46.30
2018-08-09T04:11:59.551Z,46.30
2018-08-09T04:14:26.986Z,46.30
2018-08-09T04:16:54.478Z,46.30
2018-08-09T04:19:21.938Z,46.40
2018-08-09T04:21:49.369Z,46.40
2018-08-09T04:24:16.845Z,46.40
2018-08-09T04:26:44.278Z,46.40
2018-08-09T04:29:11.806Z,46.50
2018-08-09T04:31:39.315Z,46.60
2018-08-09T04:34:06.761Z,46.60
2018-08-09T04:36:34.241Z,46.60
2018-08-09T04:39:01.750Z,46.80
2018-08-09T04:41:29.224Z,46.80
2018-08-09T04:43:56.675Z,47.60
2018-08-09T04:46:24.072Z,46.90
2018-08-09T04:48:51.482Z,47.00
2018-08-09T04:51:19.001Z,47.00
2018-08-09T04:53:46.446Z,47.20
2018-08-09T04:56:13.895Z,47.10
2018-08-09T04:58:41.407Z,47.20
2018-08-09T05:01:08.926Z,47.20
2018-08-09T05:03:36.414Z,47.20
2018-08-09T05:06:07.363Z,47.20
2018-08-09T05:08:34.818Z,47.30
2018-08-09T05:11:02.290Z,47.30
2018-08-09T05:13:29.769Z,47.30
2018-08-09T05:15:57.401Z,47.30
2018-08-09T05:18:24.879Z,47.30
2018-08-09T05:20:52.361Z,48.00
2018-08-09T05:23:19.867Z,47.40
2018-08-09T05:25:47.353Z,47.40
2018-08-09T05:28:14.815Z,47.50
2018-08-09T05:30:42.260Z,47.40
2018-08-09T05:33:09.802Z,47.40
2018-08-09T05:35:37.263Z,47.50
2018-08-09T05:38:04.807Z,47.60
2018-08-09T05:40:33.322Z,47.50
2018-08-09T05:43:00.795Z,47.70
2018-08-09T05:45:28.307Z,47.90
2018-08-09T05:47:55.797Z,47.90
2018-08-09T05:50:23.269Z,47.90
2018-08-09T05:52:50.761Z,48.00
2018-08-09T05:55:18.263Z,48.00
2018-08-09T05:57:45.725Z,48.00
2018-08-09T06:00:13.295Z,48.10
2018-08-09T06:02:40.835Z,48.20
2018-08-09T06:05:08.304Z,48.30
2018-08-09T06:07:35.798Z,48.40
2018-08-09T06:10:04.124Z,48.50
2018-08-09T06:12:32.368Z,48.60
2018-08-09T06:14:59.869Z,48.50
2018-08-09T06:17:27.364Z,48.40
2018-08-09T06:19:54.897Z,48.50
2018-08-09T06:22:22.369Z,48.50
2018-08-09T06:24:49.891Z,48.50
2018-08-09T06:27:17.409Z,49.30
2018-08-09T06:29:44.911Z,48.60
2018-08-09T06:32:12.539Z,49.20
2018-08-09T06:34:40.011Z,48.10
2018-08-09T06:37:07.578Z,48.40
2018-08-09T06:39:35.037Z,48.40
2018-08-09T06:42:02.535Z,48.60
2018-08-09T06:44:30.030Z,48.60
2018-08-09T06:46:57.510Z,49.30
2018-08-09T06:49:25.046Z,48.80
2018-08-09T06:51:52.534Z,48.80
2018-08-09T06:54:20.006Z,48.60
2018-08-09T06:56:47.543Z,48.50
2018-08-09T06:59:14.977Z,48.50
2018-08-09T07:01:42.542Z,48.50
2018-08-09T07:04:10.026Z,48.40
2018-08-09T07:06:37.539Z,48.50
2018-08-09T07:09:07.597Z,48.50
2018-08-09T07:11:35.054Z,48.50
2018-08-09T07:14:02.619Z,48.20
2018-08-09T07:16:30.093Z,48.00
2018-08-09T07:18:57.836Z,48.00
2018-08-09T07:21:25.295Z,48.00
2018-08-09T07:23:52.785Z,47.80
2018-08-09T07:26:20.240Z,47.70
2018-08-09T07:28:47.708Z,47.60
2018-08-09T07:31:15.162Z,47.20
2018-08-09T07:33:42.653Z,46.70
2018-08-09T07:36:10.170Z,46.50
2018-08-09T07:38:37.698Z,46.30
2018-08-09T07:41:05.182Z,46.20
2018-08-09T07:43:32.729Z,46.10
2018-08-09T07:46:00.201Z,46.00
2018-08-09T07:48:27.721Z,46.10
2018-08-09T07:50:55.227Z,44.20
2018-08-09T07:53:22.712Z,46.20
2018-08-09T07:55:50.175Z,45.70
2018-08-09T07:58:17.644Z,45.60
2018-08-09T08:00:45.137Z,45.10
2018-08-09T08:03:12.589Z,44.80
2018-08-09T08:05:40.050Z,44.00
2018-08-09T08:08:07.505Z,43.80
2018-08-09T08:10:34.961Z,43.70
2018-08-09T08:13:02.413Z,43.60
2018-08-09T08:15:29.901Z,43.20
2018-08-09T08:17:57.393Z,42.80
2018-08-09T08:20:24.823Z,42.40
2018-08-09T08:22:52.257Z,41.80
2018-08-09T08:25:22.804Z,41.60
2018-08-09T08:27:50.209Z,41.20
2018-08-09T08:30:17.709Z,41.00
2018-08-09T08:32:45.251Z,40.50
2018-08-09T08:35:12.704Z,40.30
2018-08-09T08:37:40.774Z,40.00
2018-08-09T08:40:08.860Z,40.40
2018-08-09T08:42:36.790Z,39.80
2018-08-09T08:45:06.227Z,39.60
2018-08-09T08:47:33.804Z,39.80
2018-08-09T08:50:01.301Z,38.60
2018-08-09T08:52:28.834Z,38.60
2018-08-09T08:54:56.343Z,38.70
2018-08-09T08:57:23.919Z,38.40
2018-08-09T08:59:51.317Z,38.90
2018-08-09T09:02:18.769Z,37.80
2018-08-09T09:04:46.284Z,37.40
2018-08-09T09:07:13.747Z,37.70
2018-08-09T09:09:41.243Z,37.70
2018-08-09T09:12:08.778Z,37.50
2018-08-09T09:14:36.244Z,36.60
2018-08-09T09:17:03.799Z,36.50
2018-08-09T09:19:31.351Z,36.10
2018-08-09T09:21:58.835Z,36.20
2018-08-09T09:24:26.345Z,35.50
2018-08-09T09:26:53.927Z,35.00
2018-08-09T09:29:21.393Z,34.60
2018-08-09T09:31:48.815Z,34.90
2018-08-09T09:34:16.298Z,34.40
2018-08-09T09:36:43.802Z,34.10
2018-08-09T09:39:11.362Z,33.90
2018-08-09T09:41:39.426Z,32.70
2018-08-09T09:44:07.359Z,32.60
2018-08-09T09:46:34.837Z,31.90
2018-08-09T09:49:02.294Z,32.10
2018-08-09T09:51:29.761Z,31.90
2018-08-09T09:53:57.572Z,31.40
2018-08-09T09:56:25.045Z,31.10
2018-08-09T09:58:52.605Z,30.20
2018-08-09T10:01:25.697Z,29.80
2018-08-09T10:03:53.162Z,29.50
2018-08-09T10:06:20.640Z,28.90
2018-08-09T10:08:48.110Z,28.30
2018-08-09T10:11:15.550Z,28.00
2018-08-09T10:13:43.102Z,27.70
2018-08-09T10:16:10.562Z,27.10
2018-08-09T10:18:38.087Z,26.70
2018-08-09T10:21:05.526Z,26.40
2018-08-09T10:23:33.072Z,26.00
2018-08-09T10:26:00.576Z,25.70
2018-08-09T10:28:28.034Z,25.30
2018-08-09T10:30:55.510Z,24.50
2018-08-09T10:33:22.982Z,24.40
2018-08-09T10:35:50.428Z,24.10
2018-08-09T10:38:17.898Z,24.00
2018-08-09T10:40:45.389Z,23.70
2018-08-09T10:43:12.898Z,23.00
2018-08-09T10:45:40.362Z,22.80
2018-08-09T10:48:07.820Z,22.50
2018-08-09T10:50:35.289Z,21.50
2018-08-09T10:53:02.731Z,21.90
2018-08-09T10:55:30.340Z,21.20
2018-08-09T10:57:57.875Z,21.20
2018-08-09T11:00:25.526Z,21.50
2018-08-09T11:02:52.998Z,21.40
2018-08-09T11:05:20.560Z,21.40
2018-08-09T11:07:48.072Z,21.50
2018-08-09T11:10:15.549Z,22.00
2018-08-09T11:12:43.050Z,22.20
2018-08-09T11:15:11.896Z,21.70
2018-08-09T11:17:39.683Z,21.60
2018-08-09T11:20:07.363Z,21.40
2018-08-09T11:22:34.885Z,21.50
2018-08-09T11:25:02.356Z,22.00
2018-08-09T11:27:29.891Z,21.50
2018-08-09T11:29:57.345Z,21.30
2018-08-09T11:32:24.797Z,21.20
2018-08-09T11:34:52.257Z,21.30
2018-08-09T11:37:19.745Z,21.50
2018-08-09T11:39:47.293Z,20.90
2018-08-09T11:42:14.755Z,21.00
2018-08-09T11:44:42.281Z,20.60
2018-08-09T11:47:09.761Z,20.70
2018-08-09T11:49:37.206Z,20.80
2018-08-09T11:52:04.670Z,20.90
2018-08-09T11:54:32.117Z,20.80
2018-08-09T11:56:59.606Z,20.80
2018-08-09T11:59:27.038Z,21.00
2018-08-09T12:01:54.525Z,21.30
2018-08-09T12:04:22.054Z,21.10
2018-08-09T12:06:49.513Z,21.90
2018-08-09T12:09:16.979Z,21.60
2018-08-09T12:11:44.568Z,21.70
2018-08-09T12:14:12.088Z,21.40
2018-08-09T12:16:39.575Z,21.40
2018-08-09T12:19:07.103Z,21.30
2018-08-09T12:21:34.592Z,21.40
2018-08-09T12:24:02.185Z,20.80
2018-08-09T12:26:30.198Z,20.70
2018-08-09T12:28:58.502Z,20.80
2018-08-09T12:31:26.018Z,20.50
2018-08-09T12:33:53.730Z,21.30
2018-08-09T12:36:21.445Z,21.30
2018-08-09T12:38:49.079Z,21.60
2018-08-09T12:41:16.884Z,20.80
2018-08-09T12:43:44.675Z,20.60
2018-08-09T12:46:12.214Z,20.30
2018-08-09T12:48:39.788Z,20.10
2018-08-09T12:51:07.596Z,20.20
2018-08-09T12:53:35.220Z,20.20
2018-08-09T12:56:02.878Z,20.40
2018-08-09T12:58:30.533Z,19.00
2018-08-09T13:00:58.058Z,20.10
2018-08-09T13:03:25.636Z,20.00
2018-08-09T13:05:53.291Z,20.00
2018-08-09T13:08:20.919Z,19.80
2018-08-09T13:10:48.452Z,19.90
2018-08-09T13:13:16.014Z,19.80
2018-08-09T13:15:43.556Z,20.10
2018-08-09T13:18:11.819Z,19.70
2018-08-09T13:20:39.314Z,19.60
2018-08-09T13:23:06.935Z,19.20
2018-08-09T13:25:34.505Z,19.40
2018-08-09T13:28:02.135Z,19.30
2018-08-09T13:30:29.833Z,19.50
2018-08-09T13:32:57.482Z,19.20
2018-08-09T13:35:25.069Z,19.90
2018-08-09T13:37:52.632Z,19.50
2018-08-09T13:40:20.174Z,19.10
2018-08-09T13:42:47.715Z,19.40
2018-08-09T13:45:16.162Z,19.40
2018-08-09T13:47:43.699Z,19.10
2018-08-09T13:50:11.954Z,18.90
2018-08-09T13:52:40.296Z,18.70
2018-08-09T13:55:08.544Z,19.50
2018-08-09T13:57:36.086Z,18.90
2018-08-09T14:00:05.125Z,18.50
2018-08-09T14:02:32.646Z,19.70
2018-08-09T14:05:00.180Z,19.10
2018-08-09T14:07:27.726Z,19.30
2018-08-09T14:09:55.256Z,19.00
2018-08-09T14:12:22.860Z,18.70
2018-08-09T14:14:50.403Z,18.60
2018-08-09T14:17:18.052Z,18.50
2018-08-09T14:19:45.640Z,18.80
2018-08-09T14:22:13.115Z,19.20
2018-08-09T14:24:40.694Z,19.80
2018-08-09T14:27:08.215Z,19.90
2018-08-09T14:29:35.769Z,19.40
2018-08-09T14:32:03.392Z,20.10
2018-08-09T14:34:30.927Z,20.00
2018-08-09T14:36:58.506Z,20.40
2018-08-09T14:39:26.047Z,20.40
2018-08-09T14:41:53.695Z,19.90
2018-08-09T14:44:21.224Z,20.20
2018-08-09T14:46:48.735Z,20.30
2018-08-09T14:49:16.255Z,20.90
2018-08-09T14:51:43.926Z,20.90
2018-08-09T14:54:11.385Z,20.60
2018-08-09T14:56:38.923Z,21.10
2018-08-09T14:59:06.500Z,21.30
2018-08-09T15:01:34.044Z,21.50
2018-08-09T15:04:01.641Z,21.80
2018-08-09T15:06:29.141Z,22.00
2018-08-09T15:08:56.682Z,22.20
2018-08-09T15:11:24.495Z,22.20
2018-08-09T15:13:52.095Z,22.70
2018-08-09T15:16:19.933Z,22.70
2018-08-09T15:18:47.500Z,22.80
2018-08-09T15:21:15.157Z,23.00
2018-08-09T15:23:42.719Z,22.90
2018-08-09T15:26:10.226Z,23.20
2018-08-09T15:28:37.779Z,23.20
2018-08-09T15:31:05.271Z,23.10
2018-08-09T15:33:32.766Z,23.30
2018-08-09T15:36:00.360Z,23.30
2018-08-09T15:38:27.915Z,23.60
2018-08-09T15:40:55.497Z,23.60
2018-08-09T15:43:23.018Z,23.90
2018-08-09T15:45:50.557Z,23.40
2018-08-09T15:48:18.160Z,23.60
2018-08-09T15:50:45.748Z,23.20
2018-08-09T15:53:13.348Z,23.30
2018-08-09T15:55:41.322Z,23.50
2018-08-09T15:58:08.973Z,23.10
2018-08-09T16:00:36.582Z,23.50
2018-08-09T16:03:05.259Z,23.60
2018-08-09T16:05:33.153Z,23.50
2018-08-09T16:08:00.791Z,23.60
2018-08-09T16:10:28.523Z,23.60
2018-08-09T16:12:56.140Z,24.00
2018-08-09T16:15:23.773Z,24.00
2018-08-09T16:17:52.839Z,24.20
2018-08-09T16:20:20.734Z,24.30
2018-08-09T16:22:49.098Z,24.40
2018-08-09T16:25:18.832Z,24.80
2018-08-09T16:27:50.922Z,25.60
2018-08-09T16:30:21.969Z,28.40
2018-08-09T16:32:49.646Z,28.30
2018-08-09T16:35:18.419Z,28.00
2018-08-09T16:37:46.928Z,28.10
2018-08-09T16:40:23.903Z,28.00
2018-08-09T16:42:53.667Z,27.60
2018-08-09T16:45:24.398Z,27.80
2018-08-09T16:47:53.953Z,27.10
2018-08-09T16:50:29.009Z,26.90
2018-08-09T16:52:57.260Z,26.80
2018-08-09T16:55:27.714Z,26.90
2018-08-09T16:57:55.490Z,27.00
2018-08-09T17:00:24.429Z,26.90
2018-08-09T17:02:53.165Z,26.70
2018-08-09T17:05:23.031Z,27.00
2018-08-09T17:07:51.663Z,27.10
2018-08-09T17:10:21.495Z,27.70
2018-08-09T17:12:52.100Z,27.00
2018-08-09T17:15:21.275Z,27.20
2018-08-09T17:17:50.570Z,27.10
2018-08-09T17:20:28.790Z,27.40
2018-08-09T17:22:57.246Z,27.40
2018-08-09T17:25:24.890Z,27.50
2018-08-09T17:27:52.618Z,27.60
2018-08-09T17:30:22.863Z,27.90
2018-08-09T17:32:50.824Z,27.80
2018-08-09T17:35:20.552Z,27.80
2018-08-09T17:37:51.035Z,27.70
2018-08-09T17:40:28.315Z,27.80
2018-08-09T17:43:01.664Z,28.10
2018-08-09T17:45:31.732Z,28.30
2018-08-09T17:48:01.225Z,29.70
2018-08-09T17:50:28.904Z,31.20
2018-08-09T17:52:59.167Z,34.20
2018-08-09T17:55:27.093Z,35.70
2018-08-09T17:57:54.653Z,36.20
2018-08-09T18:00:25.236Z,36.80
2018-08-09T18:02:54.269Z,36.30
2018-08-09T18:05:23.444Z,35.70
2018-08-09T18:07:52.188Z,36.10
2018-08-09T18:10:26.791Z,36.00
2018-08-09T18:12:56.294Z,37.10
2018-08-09T18:15:26.774Z,39.00
2018-08-09T18:17:57.917Z,40.10
2018-08-09T18:20:29.028Z,40.90
2018-08-09T18:22:57.636Z,40.50
2018-08-09T18:25:33.289Z,40.00
2018-08-09T18:28:01.977Z,41.80
2018-08-09T18:30:31.660Z,42.20
2018-08-09T18:32:59.551Z,43.00
2018-08-09T18:35:31.355Z,43.60
2018-08-09T18:38:01.607Z,43.50
2018-08-09T18:40:30.864Z,42.20
2018-08-09T18:42:59.822Z,42.70
2018-08-09T18:45:31.200Z,43.80
2018-08-09T18:48:01.774Z,44.10
2018-08-09T18:50:30.979Z,44.30
2018-08-09T18:53:07.628Z,44.80
2018-08-09T18:55:39.536Z,45.30
2018-08-09T18:58:08.773Z,45.70
2018-08-09T19:00:39.572Z,45.70
2018-08-09T19:03:11.088Z,46.20
2018-08-09T19:05:40.324Z,46.50
2018-08-09T19:08:09.257Z,46.90
2018-08-09T19:10:41.494Z,47.10
2018-08-09T19:13:11.003Z,46.90
2018-08-09T19:15:40.900Z,47.20
2018-08-09T19:18:10.614Z,47.50
2018-08-09T19:20:39.108Z,47.70
2018-08-09T19:23:12.940Z,47.60
2018-08-09T19:25:42.250Z,47.80
2018-08-09T19:28:17.936Z,48.00
2018-08-09T19:30:45.633Z,48.30
2018-08-09T19:33:15.206Z,48.20
2018-08-09T19:35:44.392Z,48.60
2018-08-09T19:38:14.605Z,48.00
2018-08-09T19:40:45.604Z,48.20
2018-08-09T19:43:20.141Z,48.90
2018-08-09T19:45:56.613Z,49.30
2018-08-09T19:48:30.231Z,49.20
2018-08-09T19:51:02.529Z,49.40
2018-08-09T19:53:33.356Z,49.60
2018-08-09T19:56:03.303Z,49.80
2018-08-09T19:58:32.151Z,50.10
2018-08-09T20:01:03.281Z,49.90
2018-08-09T20:03:35.483Z,50.50
2018-08-09T20:06:06.886Z,50.40
2018-08-09T20:08:39.582Z,49.50
2018-08-09T20:11:13.085Z,50.50
2018-08-09T20:13:46.722Z,50.00
2018-08-09T20:16:15.879Z,50.90
2018-08-09T20:18:44.993Z,50.70
2018-08-09T20:21:18.078Z,50.60
2018-08-09T20:23:52.074Z,50.50
2018-08-09T20:26:22.657Z,50.50
2018-08-09T20:28:52.161Z,50.20
2018-08-09T20:31:21.680Z,50.00
2018-08-09T20:33:51.952Z,50.00
2018-08-09T20:36:25.439Z,49.40
2018-08-09T20:38:54.143Z,48.70
2018-08-09T20:41:24.030Z,47.80
2018-08-09T20:43:54.065Z,50.30
2018-08-09T20:46:26.116Z,48.40
2018-08-09T20:49:01.007Z,48.40
2018-08-09T20:51:35.733Z,48.80
2018-08-09T20:54:05.505Z,48.90
2018-08-09T20:56:34.372Z,49.10
2018-08-09T20:59:04.083Z,48.60
2018-08-09T21:01:34.522Z,48.90
2018-08-09T21:04:10.546Z,49.30
2018-08-09T21:06:44.579Z,49.10
2018-08-09T21:09:13.472Z,49.30
2018-08-09T21:11:42.433Z,50.10
2018-08-09T21:14:10.995Z,49.40
2018-08-09T21:16:42.307Z,49.60
2018-08-09T21:19:11.959Z,49.40
2018-08-09T21:21:40.227Z,49.70
2018-08-09T21:24:09.816Z,49.80
2018-08-09T21:26:40.742Z,50.00
2018-08-09T21:29:10.675Z,50.00
2018-08-09T21:31:42.180Z,49.70
2018-08-09T21:34:09.872Z,50.10
2018-08-09T21:36:40.419Z,50.80
2018-08-09T21:39:10.288Z,50.00
2018-08-09T21:41:39.807Z,50.20
2018-08-09T21:44:11.557Z,50.20
2018-08-09T21:46:43.286Z,50.10
2018-08-09T21:49:12.697Z,50.00
2018-08-09T21:51:41.599Z,50.50
2018-08-09T21:54:09.207Z,50.40
2018-08-09T21:56:38.336Z,50.10
2018-08-09T21:59:06.606Z,50.30
2018-08-09T22:01:34.967Z,50.60
2018-08-09T22:04:05.205Z,50.40
2018-08-09T22:06:39.736Z,50.30
2018-08-09T22:09:15.660Z,50.20
2018-08-09T22:11:49.026Z,50.00
2018-08-09T22:14:23.726Z,50.10
2018-08-09T22:16:57.152Z,50.00
2018-08-09T22:19:31.098Z,49.90
2018-08-09T22:22:04.500Z,49.90
2018-08-09T22:24:32.164Z,49.90
2018-08-09T22:27:00.750Z,49.80
2018-08-09T22:29:29.388Z,50.00
2018-08-09T22:31:57.016Z,50.10
2018-08-09T22:34:24.756Z,49.90
2018-08-09T22:36:52.402Z,50.10
2018-08-09T22:39:20.022Z,49.90
2018-08-09T22:41:48.228Z,49.50
2018-08-09T22:44:15.782Z,50.00
2018-08-09T22:46:43.332Z,50.00
2018-08-09T22:49:10.996Z,49.90
2018-08-09T22:51:38.582Z,50.00
2018-08-09T22:54:06.628Z,50.20
2018-08-09T22:56:34.132Z,49.90
2018-08-09T22:59:01.705Z,49.80
2018-08-09T23:01:29.211Z,50.20
2018-08-09T23:03:56.788Z,50.50
2018-08-09T23:06:24.394Z,50.60
2018-08-09T23:08:51.884Z,50.70
2018-08-09T23:11:19.502Z,50.90
2018-08-09T23:13:47.070Z,51.20
2018-08-09T23:16:14.585Z,51.70
2018-08-09T23:18:48.777Z,51.90
2018-08-09T23:21:16.277Z,52.10
2018-08-09T23:23:43.795Z,51.70
2018-08-09T23:26:11.321Z,52.20
2018-08-09T23:28:38.800Z,52.40
2018-08-09T23:31:06.288Z,52.50
2018-08-09T23:33:33.829Z,52.30
2018-08-09T23:36:01.297Z,51.90
2018-08-09T23:38:28.785Z,52.70
2018-08-09T23:40:56.264Z,52.80
2018-08-09T23:43:23.706Z,52.80
2018-08-09T23:45:51.174Z,53.10
2018-08-09T23:48:18.701Z,53.20
2018-08-09T23:50:46.218Z,53.00
2018-08-09T23:53:14.173Z,53.60
2018-08-09T23:55:41.615Z,54.10
2018-08-09T23:58:09.121Z,54.30
